createdAt,value
2023-03-29T19:34:39.667Z,80.69
2023-03-29T19:37:08.658Z,80.16
2023-03-29T19:39:37.229Z,79.91
2023-03-29T19:42:06.375Z,79.48
2023-03-29T19:44:36.172Z,80.35
2023-03-29T19:47:10.777Z,80.21
2023-03-29T19:49:39.656Z,79.10
2023-03-29T19:52:07.769Z,79.12
2023-03-29T19:54:36.488Z,78.71
2023-03-29T19:57:04.984Z,78.98
2023-03-29T19:59:33.816Z,78.97
2023-03-29T20:02:03.113Z,79.38
2023-03-29T20:04:33.541Z,79.01
2023-03-29T20:07:01.982Z,79.74
2023-03-29T20:09:31.606Z,79.76
2023-03-29T20:12:02.949Z,79.53
2023-03-29T20:14:31.674Z,79.28
2023-03-29T20:16:59.971Z,79.41
2023-03-29T20:19:30.291Z,80.35
2023-03-29T20:21:59.216Z,81.00
2023-03-29T20:24:27.778Z,80.97
2023-03-29T20:26:56.020Z,80.87
2023-03-29T20:29:24.517Z,80.27
2023-03-29T20:32:02.155Z,81.20
2023-03-29T20:34:31.047Z,82.47
2023-03-29T20:37:01.253Z,82.02
2023-03-29T20:39:31.891Z,82.58
2023-03-29T20:42:00.876Z,82.91
2023-03-29T20:44:29.092Z,83.06
2023-03-29T20:47:04.323Z,83.33
2023-03-29T20:49:39.722Z,83.82
2023-03-29T20:52:18.527Z,85.38
2023-03-29T20:54:47.011Z,85.08
2023-03-29T20:57:20.321Z,86.04
2023-03-29T20:59:51.527Z,87.44
2023-03-29T21:02:24.341Z,87.11
2023-03-29T21:04:54.929Z,85.57
2023-03-29T21:07:23.616Z,86.04
2023-03-29T21:09:51.863Z,87.11
2023-03-29T21:12:20.495Z,86.86
2023-03-29T21:14:48.967Z,86.67
2023-03-29T21:17:33.859Z,85.63
2023-03-29T21:20:11.535Z,86.05
2023-03-29T21:22:44.650Z,87.50
2023-03-29T21:25:15.830Z,88.17
2023-03-29T21:27:44.561Z,88.60
2023-03-29T21:30:13.658Z,89.04
2023-03-29T21:32:42.057Z,89.18
2023-03-29T21:35:10.696Z,89.35
2023-03-29T21:37:39.043Z,88.45
2023-03-29T21:40:08.946Z,88.25
2023-03-29T21:42:37.199Z,88.21
2023-03-29T21:45:05.922Z,88.51
2023-03-29T21:47:34.071Z,88.48
2023-03-29T21:50:02.644Z,89.02
2023-03-29T21:52:30.707Z,88.70
2023-03-29T21:54:59.071Z,88.79
2023-03-29T21:57:27.634Z,89.01
2023-03-29T21:59:56.272Z,88.45
2023-03-29T22:02:24.373Z,88.56
2023-03-29T22:04:52.535Z,89.26
2023-03-29T22:07:23.270Z,90.19
2023-03-29T22:09:51.313Z,89.96
2023-03-29T22:12:19.699Z,90.27
2023-03-29T22:14:47.931Z,90.91
2023-03-29T22:17:16.701Z,90.38
2023-03-29T22:19:45.135Z,89.90
2023-03-29T22:22:15.130Z,89.64
2023-03-29T22:24:43.404Z,89.47
2023-03-29T22:27:12.164Z,89.27
2023-03-29T22:29:40.364Z,89.09
2023-03-29T22:32:08.647Z,90.36
2023-03-29T22:34:37.295Z,90.77
2023-03-29T22:37:05.759Z,91.40
2023-03-29T22:39:37.800Z,92.20
2023-03-29T22:42:06.040Z,92.02
2023-03-29T22:44:34.560Z,92.41
2023-03-29T22:47:02.623Z,91.86
2023-03-29T22:49:30.647Z,93.54
2023-03-29T22:52:02.651Z,94.22
2023-03-29T22:54:31.371Z,93.90
2023-03-29T22:56:59.771Z,94.66
2023-03-29T22:59:30.152Z,94.08
2023-03-29T23:02:01.375Z,92.88
2023-03-29T23:04:29.597Z,91.65
2023-03-29T23:06:59.191Z,91.55
2023-03-29T23:09:33.829Z,91.90
2023-03-29T23:12:03.581Z,92.06
2023-03-29T23:14:31.835Z,92.48
2023-03-29T23:17:00.586Z,93.15
2023-03-29T23:19:28.601Z,94.24
2023-03-29T23:21:57.065Z,94.94
2023-03-29T23:24:25.189Z,96.69
2023-03-29T23:26:53.551Z,96.98
2023-03-29T23:29:21.591Z,97.42
2023-03-29T23:31:49.732Z,97.44
2023-03-29T23:34:20.546Z,98.07
2023-03-29T23:36:49.152Z,98.76
2023-03-29T23:39:17.414Z,98.67
2023-03-29T23:41:46.089Z,98.16
2023-03-29T23:44:14.256Z,97.14
2023-03-29T23:46:42.749Z,97.21
2023-03-29T23:49:11.160Z,97.97
2023-03-29T23:51:39.841Z,98.79
2023-03-29T23:54:08.362Z,98.34
2023-03-29T23:56:37.080Z,97.62
2023-03-29T23:59:05.326Z,97.12
